Matsuyama Airport, Japan

7:55 AM JST on April 28, 2015 (GMT +0900)
Matsuyama | | Change Station
CLOSE
Current Station
Airport
Location: Matsuyama Airport,
Elevation: 23 ft
Nearby Weather Stations

Elev 23 ft 33.83 °N, 132.70 °E | Updated 55 minutes ago

Partly Cloudy
Partly Cloudy
63 °F
Feels Like 63 °F
N
7
Wind Variable Wind from ESE

Today
High -- | Low -- °F
--% Chance of Precip.
Yesterday
High -- | Low -- °F
Precip. -- in
5:24 AM 6:49 PM
Waxing Gibbous, 68% visible
Pressure 30.06 in
Visibility 5.6 miles
Clouds Few 3000 ft
Dew Point 54 °F
Humidity 72%
Rainfall 0.00 in
Snow Depth Not available.
UV 1 out of 12
Pollen Not available.
Air Quality Not available.
Flu Activity Not available.
METAR RJOM 272200Z 12006KT 9000 FEW030 BKN/// 17/12 Q1018

More Conditions Fewer Conditions

Pressure 30.06 in
Visibility 5.6 miles
Clouds Few 3000 ft
Dew Point 54 °F
Humidity 72%
Rainfall 0.00 in
Snow Depth Not available.
UV 1 out of 12
Pollen Not available.
Air Quality Not available.
Flu Activity Not available.
METAR RJOM 272200Z 12006KT 9000 FEW030 BKN/// 17/12 Q1018

More Conditions Fewer Conditions

10-Day Weather Forecast

Almanac

Astronomy

Apr. 28, 2015 Rise Set
Actual Time
Civil Twilight
Nautical Twilight
Astronomical Twilight
Moon
Length of Visible Light
Length of Day
Tomorrow will be .
, % of the Moon is Illuminated

Today's Extremes

Country Highs Country Lows

Community

WunderPhotos

Upload Photos

1,817,442 photos uploaded!

WunderBlogs® & News

Nearby

Air Quality

  Air Quality AQ Index Pollutant
Not available.

Snow Depth

Station Depth Elevation

Earthquake Activity

City Distance Mag. Time & Date
Minimum magnitude displayed is 2.5.

Coastal Water Temperatures

Place Temperature

Stations

Nearby Weather Stations

Station Location Temp. Windchill Dew Point Humidity Wind Precip. Elev Updated Type